Search for airport 
image banner adimage banner ad
image banner ad

LECN - Castellon (Private)

Located in Castellon, Spain

ICAO - LECN, IATA - CDT

Data provided by Airmate  

General information

Coordinates: N39°59'53" E0°1'35"
Elevation is 17 feet MSL.
 
Rated:
View ratings: [VIEW]


View others Airports in Valencia

Operational data

Open for public use
Current time UTC:
Current local time:
Weather at : LECH - Castellon ( 24 km )
METAR: LECH 091400Z AUTO 08006KT 020V130 CAVOK 28/19 Q1017
View NOTAMs / SUP AIP / TFR affecting this airport [VIEW]
Communications frequencies: [VIEW]

Runways:

RWY identifierQFULength (ft)Width (ft)SurfaceLDA (ft)
18259282UNK
36259282UNK

Airport contact information

Address: Castellon Spain

Satellite view of LECN